createdAt,value
2018-01-15T00:00:35.443Z,0.90
2018-01-15T00:03:02.886Z,0.90
2018-01-15T00:05:30.334Z,0.90
2018-01-15T00:07:57.782Z,0.90
2018-01-15T00:10:25.226Z,0.90
2018-01-15T00:12:53.442Z,0.90
2018-01-15T00:15:20.895Z,0.80
2018-01-15T00:17:48.388Z,0.90
2018-01-15T00:20:15.839Z,0.90
2018-01-15T00:22:43.286Z,0.90
2018-01-15T00:25:10.738Z,0.90
2018-01-15T00:27:38.189Z,0.90
2018-01-15T00:30:05.630Z,0.90
2018-01-15T00:32:33.082Z,0.90
2018-01-15T00:35:00.531Z,0.90
2018-01-15T00:37:27.986Z,0.90
2018-01-15T00:39:55.427Z,0.90
2018-01-15T00:42:22.871Z,0.90
2018-01-15T00:44:51.086Z,0.90
2018-01-15T00:47:18.548Z,0.80
2018-01-15T00:49:45.987Z,0.80
2018-01-15T00:52:13.434Z,0.80
2018-01-15T00:54:40.874Z,0.90
2018-01-15T00:57:09.094Z,0.80
2018-01-15T00:59:36.540Z,0.80
2018-01-15T01:02:03.991Z,0.90
2018-01-15T01:04:31.431Z,0.90
2018-01-15T01:06:58.874Z,0.90
2018-01-15T01:09:27.091Z,0.90
2018-01-15T01:12:14.254Z,0.80
2018-01-15T01:14:41.697Z,0.90
2018-01-15T01:17:09.146Z,0.90
2018-01-15T01:22:27.988Z,0.90
2018-01-15T01:24:55.614Z,0.80
2018-01-15T01:27:23.826Z,0.90
2018-01-15T01:29:51.277Z,0.80
2018-01-15T01:32:20.211Z,0.80
2018-01-15T01:34:47.655Z,0.80
2018-01-15T01:37:15.110Z,0.80
2018-01-15T01:39:42.555Z,0.80
2018-01-15T01:42:09.998Z,0.80
2018-01-15T01:44:37.454Z,0.80
2018-01-15T01:47:04.907Z,0.80
2018-01-15T01:49:32.365Z,0.80
2018-01-15T01:52:00.216Z,0.80
2018-01-15T01:54:27.676Z,0.80
2018-01-15T01:56:55.115Z,0.80
2018-01-15T01:59:23.338Z,0.80
2018-01-15T02:01:50.781Z,0.80
2018-01-15T02:04:18.827Z,0.80
2018-01-15T02:06:46.271Z,0.80
2018-01-15T02:09:14.486Z,0.80
2018-01-15T02:11:41.929Z,0.80
2018-01-15T02:14:09.377Z,0.80
2018-01-15T02:16:36.823Z,0.80
2018-01-15T02:19:04.266Z,0.80
2018-01-15T02:21:32.483Z,0.80
2018-01-15T02:23:59.931Z,0.70
2018-01-15T02:26:27.370Z,0.80
2018-01-15T02:28:54.825Z,0.70
2018-01-15T02:31:22.266Z,0.70
2018-01-15T02:33:50.497Z,0.70
2018-01-15T02:36:17.929Z,0.60
2018-01-15T02:38:45.380Z,0.70
2018-01-15T02:41:12.826Z,0.70
2018-01-15T02:43:40.273Z,0.70
2018-01-15T02:46:08.478Z,0.70
2018-01-15T02:48:35.927Z,0.60
2018-01-15T02:51:03.379Z,0.70
2018-01-15T02:53:30.818Z,0.60
2018-01-15T02:55:58.268Z,0.60
2018-01-15T02:58:26.479Z,0.60
2018-01-15T03:00:53.934Z,0.60
2018-01-15T03:03:21.419Z,0.60
2018-01-15T03:05:48.875Z,0.60
2018-01-15T03:08:16.319Z,0.60
2018-01-15T03:10:43.768Z,0.60
2018-01-15T03:13:11.209Z,0.60
2018-01-15T03:15:38.673Z,0.60
2018-01-15T03:18:06.933Z,0.60
2018-01-15T03:20:34.380Z,0.60
2018-01-15T03:23:01.815Z,0.60
2018-01-15T03:25:30.032Z,0.60
2018-01-15T03:27:58.261Z,0.50
2018-01-15T03:30:25.707Z,0.50
2018-01-15T03:32:53.156Z,0.50
2018-01-15T03:35:20.597Z,0.50
2018-01-15T03:37:48.111Z,0.50
2018-01-15T03:40:15.560Z,0.50
2018-01-15T03:42:43.767Z,0.70
2018-01-15T03:45:11.218Z,0.60
2018-01-15T03:47:38.662Z,0.70
2018-01-15T03:50:06.114Z,0.70
2018-01-15T03:52:33.555Z,0.70
2018-01-15T03:55:01.780Z,0.80
2018-01-15T03:57:29.226Z,0.80
2018-01-15T03:59:56.666Z,0.80
2018-01-15T04:02:24.119Z,0.90
2018-01-15T04:04:51.573Z,0.90
2018-01-15T04:07:19.027Z,0.90
2018-01-15T04:09:46.470Z,1.00
2018-01-15T04:12:14.690Z,1.00
2018-01-15T04:14:42.138Z,1.00
2018-01-15T04:17:09.587Z,1.00
2018-01-15T04:19:37.022Z,1.10
2018-01-15T04:22:04.468Z,1.10
2018-01-15T04:24:32.674Z,1.20
2018-01-15T04:27:00.122Z,1.20
2018-01-15T04:29:27.566Z,1.20
2018-01-15T04:31:55.015Z,1.20
2018-01-15T04:34:23.227Z,1.30
2018-01-15T04:36:50.678Z,1.30
2018-01-15T04:39:18.117Z,1.30
2018-01-15T04:41:45.579Z,1.40
2018-01-15T04:44:13.026Z,1.40
2018-01-15T04:46:40.483Z,1.50
2018-01-15T04:49:07.927Z,1.50
2018-01-15T04:51:36.140Z,1.50
2018-01-15T04:54:03.589Z,1.50
2018-01-15T04:56:31.043Z,1.60
2018-01-15T04:58:58.486Z,1.60
2018-01-15T05:01:25.934Z,1.70
2018-01-15T05:03:53.403Z,1.70
2018-01-15T05:06:20.851Z,1.70
2018-01-15T05:08:48.286Z,1.70
2018-01-15T05:11:16.510Z,1.80
2018-01-15T05:13:43.956Z,1.80
2018-01-15T05:16:11.399Z,1.80
2018-01-15T05:18:38.838Z,1.80
2018-01-15T05:21:07.047Z,1.90
2018-01-15T05:23:34.490Z,1.80
2018-01-15T05:26:02.818Z,1.90
2018-01-15T05:28:30.275Z,1.90
2018-01-15T05:30:57.731Z,1.90
2018-01-15T05:33:25.189Z,1.90
2018-01-15T05:35:52.651Z,2.00
2018-01-15T05:38:20.115Z,2.00
2018-01-15T05:40:47.583Z,2.00
2018-01-15T05:43:15.055Z,2.00
2018-01-15T05:45:42.511Z,2.00
2018-01-15T05:48:09.988Z,2.10
2018-01-15T05:50:37.456Z,2.10
2018-01-15T05:53:04.919Z,2.10
2018-01-15T05:55:32.376Z,2.10
2018-01-15T05:57:59.860Z,2.10
2018-01-15T06:00:27.305Z,2.10
2018-01-15T06:02:54.768Z,2.10
2018-01-15T06:05:22.289Z,2.10
2018-01-15T06:07:49.699Z,2.10
2018-01-15T06:10:17.158Z,2.10
2018-01-15T06:12:44.623Z,2.10
2018-01-15T06:15:12.076Z,2.20
2018-01-15T06:17:40.317Z,2.20
2018-01-15T06:20:07.802Z,2.20
2018-01-15T06:22:35.255Z,2.20
2018-01-15T06:25:02.720Z,2.20
2018-01-15T06:27:30.946Z,2.20
2018-01-15T06:29:58.415Z,2.20
2018-01-15T06:32:25.867Z,2.20
2018-01-15T06:34:53.372Z,2.20
2018-01-15T06:37:21.612Z,2.10
2018-01-15T06:39:49.074Z,2.10
2018-01-15T06:42:16.532Z,2.10
2018-01-15T06:44:44.009Z,2.10
2018-01-15T06:47:12.237Z,2.20
2018-01-15T06:49:39.692Z,2.10
2018-01-15T06:52:07.159Z,2.20
2018-01-15T06:54:34.619Z,2.20
2018-01-15T06:57:02.076Z,2.20
2018-01-15T06:59:29.579Z,2.20
2018-01-15T07:01:57.811Z,2.20
2018-01-15T07:04:25.260Z,2.20
2018-01-15T07:06:52.712Z,2.20
2018-01-15T07:09:20.180Z,2.20
2018-01-15T07:11:47.616Z,2.20
2018-01-15T07:14:15.179Z,2.20
2018-01-15T07:16:42.629Z,2.20
2018-01-15T07:19:10.071Z,2.20
2018-01-15T07:21:37.547Z,2.20
2018-01-15T07:24:04.983Z,2.20
2018-01-15T07:26:32.463Z,2.20
2018-01-15T07:28:59.908Z,2.20
2018-01-15T07:31:27.358Z,2.20
2018-01-15T07:33:54.823Z,2.20
2018-01-15T07:36:22.262Z,2.30
2018-01-15T07:38:49.726Z,2.30
2018-01-15T07:41:17.154Z,2.30
2018-01-15T07:43:45.370Z,2.30
2018-01-15T07:46:12.814Z,2.20
2018-01-15T07:48:40.282Z,2.20
2018-01-15T07:51:07.722Z,2.30
2018-01-15T07:53:35.167Z,2.30
2018-01-15T07:56:02.607Z,2.30
2018-01-15T07:58:31.141Z,2.30
2018-01-15T08:00:58.587Z,2.20
2018-01-15T08:03:26.043Z,2.30
2018-01-15T08:05:53.494Z,2.30
2018-01-15T08:08:20.934Z,2.30
2018-01-15T08:10:48.392Z,2.30
2018-01-15T08:13:15.826Z,2.30
2018-01-15T08:15:44.034Z,2.40
2018-01-15T08:18:11.488Z,2.30
2018-01-15T08:20:38.943Z,2.40
2018-01-15T08:23:06.383Z,2.40
2018-01-15T08:25:33.840Z,2.40
2018-01-15T08:28:01.287Z,2.40
2018-01-15T08:30:29.498Z,2.50
2018-01-15T08:32:56.946Z,2.50
2018-01-15T08:35:24.396Z,2.50
2018-01-15T08:37:51.849Z,2.50
2018-01-15T08:40:19.307Z,2.60
2018-01-15T08:42:46.749Z,2.60
2018-01-15T08:45:14.961Z,2.70
2018-01-15T08:47:42.403Z,2.70
2018-01-15T08:50:10.624Z,2.80
2018-01-15T08:52:38.067Z,2.80
2018-01-15T08:55:05.514Z,2.90
2018-01-15T08:57:32.963Z,3.00
2018-01-15T09:00:00.419Z,3.10
2018-01-15T09:02:27.862Z,3.10
2018-01-15T09:04:55.312Z,3.20
2018-01-15T09:07:22.772Z,3.20
2018-01-15T09:09:50.223Z,3.30
2018-01-15T09:12:17.689Z,3.40
2018-01-15T09:14:45.122Z,3.50
2018-01-15T09:17:12.572Z,3.60
2018-01-15T09:19:40.011Z,3.70
2018-01-15T09:22:08.229Z,3.80
2018-01-15T09:24:36.225Z,3.80
2018-01-15T09:27:03.687Z,3.80
2018-01-15T09:29:31.126Z,3.90
2018-01-15T09:31:58.583Z,3.90
2018-01-15T09:34:26.023Z,3.90
2018-01-15T09:36:53.476Z,4.00
2018-01-15T09:39:20.914Z,4.00
2018-01-15T09:41:48.396Z,4.00
2018-01-15T09:44:15.843Z,4.00
2018-01-15T09:46:43.291Z,4.00
2018-01-15T09:49:10.734Z,4.10
2018-01-15T09:51:38.942Z,4.10
2018-01-15T09:54:06.395Z,4.10
2018-01-15T09:56:33.855Z,4.10
2018-01-15T09:59:01.316Z,4.20
2018-01-15T10:01:29.768Z,4.20
2018-01-15T10:03:57.258Z,4.20
2018-01-15T10:06:24.700Z,4.30
2018-01-15T10:08:52.159Z,4.30
2018-01-15T10:11:19.611Z,4.30
2018-01-15T10:13:47.058Z,4.40
2018-01-15T10:16:14.519Z,4.40
2018-01-15T10:18:42.748Z,4.50
2018-01-15T10:21:10.200Z,4.50
2018-01-15T10:23:38.312Z,4.60
2018-01-15T10:26:06.525Z,4.60
2018-01-15T10:28:33.988Z,4.60
2018-01-15T10:31:01.412Z,4.60
2018-01-15T10:33:28.973Z,4.70
2018-01-15T10:35:57.322Z,4.70
2018-01-15T10:38:25.531Z,4.70
2018-01-15T10:40:53.795Z,4.70
2018-01-15T10:43:21.241Z,4.80
2018-01-15T10:45:48.675Z,4.90
2018-01-15T10:48:16.922Z,5.00
2018-01-15T10:50:44.362Z,4.90
2018-01-15T10:53:11.807Z,5.00
2018-01-15T10:55:39.820Z,5.10
2018-01-15T10:58:07.270Z,5.10
2018-01-15T11:00:40.442Z,5.10
2018-01-15T11:03:07.928Z,5.10
2018-01-15T11:05:35.367Z,5.20
2018-01-15T11:08:02.819Z,5.20
2018-01-15T11:10:30.263Z,5.30
2018-01-15T11:12:57.717Z,5.30
2018-01-15T11:15:25.166Z,5.30
2018-01-15T11:17:52.621Z,5.40
2018-01-15T11:20:20.061Z,5.40
2018-01-15T11:22:47.506Z,5.40
2018-01-15T11:25:14.951Z,5.40
2018-01-15T11:27:43.277Z,5.40
2018-01-15T11:30:10.715Z,5.40
2018-01-15T11:32:38.183Z,5.50
2018-01-15T11:35:05.618Z,5.40
2018-01-15T11:37:33.069Z,5.40
2018-01-15T11:40:00.548Z,5.50
2018-01-15T11:42:27.986Z,5.50
2018-01-15T11:44:55.442Z,5.50
2018-01-15T11:47:22.886Z,5.50
2018-01-15T11:49:50.364Z,5.60
2018-01-15T11:52:17.798Z,5.60
2018-01-15T11:54:45.239Z,5.70
2018-01-15T11:57:13.451Z,5.80
2018-01-15T11:59:40.906Z,5.70
2018-01-15T12:02:08.351Z,5.80
2018-01-15T12:04:35.803Z,5.80
2018-01-15T12:07:03.246Z,5.90
2018-01-15T12:09:31.460Z,6.00
2018-01-15T12:11:58.901Z,6.00
2018-01-15T12:14:26.430Z,6.00
2018-01-15T12:16:54.630Z,6.10
2018-01-15T12:19:22.081Z,6.10
2018-01-15T12:21:49.556Z,6.20
2018-01-15T12:24:17.026Z,6.20
2018-01-15T12:26:44.463Z,6.30
2018-01-15T12:29:11.933Z,6.30
2018-01-15T12:31:39.375Z,6.40
2018-01-15T12:34:06.867Z,6.40
2018-01-15T12:36:34.328Z,6.40
2018-01-15T12:39:01.774Z,6.50
2018-01-15T12:41:29.210Z,6.50
2018-01-15T12:43:56.667Z,6.50
2018-01-15T12:46:24.111Z,6.60
2018-01-15T12:48:52.305Z,6.60
2018-01-15T12:51:19.695Z,6.60
2018-01-15T12:53:47.142Z,6.70
2018-01-15T12:56:14.623Z,6.70
2018-01-15T12:58:42.831Z,6.80
2018-01-15T13:01:10.291Z,6.80
2018-01-15T13:03:37.739Z,6.80
2018-01-15T13:06:06.100Z,6.80
2018-01-15T13:11:34.802Z,6.80
2018-01-15T13:14:03.015Z,6.80
2018-01-15T13:16:30.455Z,6.80
2018-01-15T13:18:57.895Z,6.80
2018-01-15T13:21:25.339Z,6.80
2018-01-15T13:23:53.552Z,6.80
2018-01-15T13:26:20.994Z,6.80
2018-01-15T13:28:48.453Z,6.80
2018-01-15T13:31:15.908Z,6.80
2018-01-15T13:33:43.362Z,6.80
2018-01-15T13:36:11.838Z,6.90
2018-01-15T13:38:39.288Z,6.90
2018-01-15T13:41:06.739Z,6.80
2018-01-15T13:43:34.955Z,6.80
2018-01-15T13:46:02.404Z,6.80
2018-01-15T13:48:29.849Z,6.80
2018-01-15T13:50:57.336Z,6.80
2018-01-15T13:53:24.785Z,6.80
2018-01-15T13:55:52.232Z,6.80
2018-01-15T13:58:19.720Z,6.80
2018-01-15T14:00:47.158Z,6.80
2018-01-15T14:03:14.602Z,6.70
2018-01-15T14:05:42.073Z,6.70
2018-01-15T14:08:09.524Z,6.70
2018-01-15T14:10:36.981Z,6.70
2018-01-15T14:13:04.426Z,6.60
2018-01-15T14:15:31.939Z,6.70
2018-01-15T14:17:59.432Z,6.60
2018-01-15T14:20:26.867Z,6.60
2018-01-15T14:22:54.318Z,6.60
2018-01-15T14:25:22.531Z,6.60
2018-01-15T14:27:50.013Z,6.60
2018-01-15T14:30:17.451Z,6.60
2018-01-15T14:32:44.912Z,6.60
2018-01-15T14:35:12.352Z,6.60
2018-01-15T14:37:39.803Z,6.50
2018-01-15T14:40:07.261Z,6.50
2018-01-15T14:42:34.743Z,6.50
2018-01-15T14:45:02.198Z,6.50
2018-01-15T14:47:29.659Z,6.50
2018-01-15T14:49:57.111Z,6.50
2018-01-15T14:52:25.365Z,6.50
2018-01-15T14:54:52.830Z,6.50
2018-01-15T14:57:20.300Z,6.50
2018-01-15T14:59:47.750Z,6.40
2018-01-15T15:02:15.200Z,6.40
2018-01-15T15:04:42.659Z,6.40
2018-01-15T15:07:10.111Z,6.40
2018-01-15T15:09:37.562Z,6.40
2018-01-15T15:12:05.008Z,6.30
2018-01-15T15:14:32.471Z,6.40
2018-01-15T15:17:00.046Z,6.30
2018-01-15T15:19:27.362Z,6.30
2018-01-15T15:21:54.820Z,6.30
2018-01-15T15:24:23.014Z,6.30
2018-01-15T15:26:51.238Z,6.30
2018-01-15T15:29:18.683Z,6.30
2018-01-15T15:31:46.166Z,6.30
2018-01-15T15:34:14.366Z,6.30
2018-01-15T15:36:41.812Z,6.30
2018-01-15T15:39:09.308Z,6.20
2018-01-15T15:41:36.753Z,6.20
2018-01-15T15:44:04.257Z,6.20
2018-01-15T15:46:31.686Z,6.20
2018-01-15T15:48:59.135Z,6.20
2018-01-15T15:51:26.579Z,6.10
2018-01-15T15:53:54.035Z,6.10
2018-01-15T15:56:21.487Z,6.10
2018-01-15T15:58:48.958Z,6.10
2018-01-15T16:01:16.407Z,6.10
2018-01-15T16:03:43.856Z,6.10
2018-01-15T16:06:11.303Z,6.10
2018-01-15T16:08:39.603Z,6.10
2018-01-15T16:11:07.084Z,6.10
2018-01-15T16:13:34.551Z,6.10
2018-01-15T16:16:02.008Z,6.10
2018-01-15T16:18:29.458Z,6.00
2018-01-15T16:20:56.907Z,6.00
2018-01-15T16:23:24.392Z,6.00
2018-01-15T16:25:52.612Z,6.00
2018-01-15T16:28:20.077Z,6.00
2018-01-15T16:30:48.292Z,6.00
2018-01-15T16:33:15.734Z,6.00
2018-01-15T16:35:43.188Z,6.00
2018-01-15T16:38:10.825Z,6.00
2018-01-15T16:40:38.277Z,6.00
2018-01-15T16:43:05.721Z,5.90
2018-01-15T16:45:33.931Z,5.90
2018-01-15T16:48:01.383Z,5.90
2018-01-15T16:50:28.835Z,5.90
2018-01-15T16:52:56.276Z,5.90
2018-01-15T16:55:23.718Z,5.90
2018-01-15T16:57:51.184Z,5.90
2018-01-15T17:00:19.072Z,5.90
2018-01-15T17:02:46.522Z,5.90
2018-01-15T17:05:13.977Z,5.90
2018-01-15T17:07:41.423Z,5.90
2018-01-15T17:10:09.648Z,6.00
2018-01-15T17:12:37.108Z,6.00
2018-01-15T17:15:05.322Z,6.00
2018-01-15T17:17:33.532Z,6.00
2018-01-15T17:20:00.995Z,6.00
2018-01-15T17:22:28.431Z,6.00
2018-01-15T17:24:55.887Z,6.00
2018-01-15T17:27:23.339Z,6.00
2018-01-15T17:29:50.784Z,6.10
2018-01-15T17:32:19.003Z,6.10
2018-01-15T17:34:46.468Z,6.10
2018-01-15T17:37:14.695Z,6.10
2018-01-15T17:39:42.140Z,6.10
2018-01-15T17:42:09.609Z,6.10
2018-01-15T17:44:37.052Z,6.10
2018-01-15T17:47:04.494Z,6.10
2018-01-15T17:49:31.942Z,6.10
2018-01-15T17:51:59.390Z,6.10
2018-01-15T17:54:27.602Z,6.10
2018-01-15T17:56:55.054Z,6.10
2018-01-15T17:59:22.509Z,6.10
2018-01-15T18:01:49.963Z,6.10
2018-01-15T18:04:17.418Z,6.10
2018-01-15T18:06:44.870Z,6.10
2018-01-15T18:09:12.316Z,6.10
2018-01-15T18:11:39.763Z,6.10
2018-01-15T18:14:07.240Z,6.10
2018-01-15T18:16:34.701Z,6.10
2018-01-15T18:19:02.141Z,6.10
2018-01-15T18:21:29.591Z,6.10
2018-01-15T18:23:57.833Z,6.10
2018-01-15T18:26:25.281Z,6.10
2018-01-15T18:28:52.796Z,6.10
2018-01-15T18:31:20.252Z,6.00
2018-01-15T18:33:47.696Z,6.10
2018-01-15T18:36:15.151Z,6.00
2018-01-15T18:38:42.594Z,6.00
2018-01-15T18:41:10.808Z,6.00
2018-01-15T18:43:38.250Z,6.00
2018-01-15T18:46:05.711Z,6.10
2018-01-15T18:48:33.172Z,6.10
2018-01-15T18:51:00.615Z,6.10
2018-01-15T18:53:28.083Z,6.10
2018-01-15T18:55:55.537Z,6.10
2018-01-15T18:58:22.979Z,6.00
2018-01-15T19:00:50.457Z,6.00
2018-01-15T19:03:17.902Z,6.00
2018-01-15T19:05:45.393Z,6.00
2018-01-15T19:08:12.967Z,6.00
2018-01-15T19:10:40.415Z,6.00
2018-01-15T19:13:08.756Z,5.90
2018-01-15T19:15:36.191Z,5.90
2018-01-15T19:18:04.419Z,5.80
2018-01-15T19:20:31.866Z,5.80
2018-01-15T19:22:59.330Z,5.90
2018-01-15T19:25:26.795Z,5.80
2018-01-15T19:27:54.244Z,5.80
2018-01-15T19:30:21.742Z,5.80
2018-01-15T19:32:49.180Z,5.80
2018-01-15T19:35:19.543Z,5.80
2018-01-15T19:37:49.548Z,5.80
2018-01-15T19:40:17.759Z,5.70
2018-01-15T19:42:45.248Z,5.70
2018-01-15T19:45:18.646Z,5.70
2018-01-15T19:47:51.712Z,5.70
2018-01-15T19:50:24.928Z,5.70
2018-01-15T19:52:58.124Z,5.70
2018-01-15T19:55:31.317Z,5.70
2018-01-15T19:58:04.509Z,5.70
2018-01-15T20:00:37.678Z,5.70
2018-01-15T20:03:10.790Z,5.70
2018-01-15T20:05:44.107Z,5.70
2018-01-15T20:08:17.939Z,5.70
2018-01-15T20:10:48.783Z,5.70
2018-01-15T20:13:16.281Z,5.70
2018-01-15T20:15:43.703Z,5.70
2018-01-15T20:18:11.206Z,5.70
2018-01-15T20:20:38.642Z,5.60
2018-01-15T20:23:06.136Z,5.60
2018-01-15T20:25:34.332Z,5.60
2018-01-15T20:28:01.784Z,5.60
2018-01-15T20:30:29.266Z,5.50
2018-01-15T20:32:57.507Z,5.60
2018-01-15T20:35:24.899Z,5.50
2018-01-15T20:37:52.389Z,5.50
2018-01-15T20:40:19.931Z,5.50
2018-01-15T20:42:47.414Z,5.50
2018-01-15T20:45:15.619Z,5.60
2018-01-15T20:47:43.132Z,5.60
2018-01-15T20:50:10.625Z,5.60
2018-01-15T20:52:38.110Z,5.60
2018-01-15T20:55:05.562Z,5.60
2018-01-15T20:57:33.014Z,5.60
2018-01-15T21:02:44.115Z,5.60
2018-01-15T21:05:11.596Z,5.60
2018-01-15T21:07:39.023Z,5.70
2018-01-15T21:10:06.509Z,5.70
2018-01-15T21:12:33.943Z,5.60
2018-01-15T21:15:01.431Z,5.70
2018-01-15T21:17:28.906Z,5.60
2018-01-15T21:19:57.142Z,5.60
2018-01-15T21:22:24.609Z,5.60
2018-01-15T21:24:52.100Z,5.60
2018-01-15T21:27:19.570Z,5.60
2018-01-15T21:29:47.033Z,5.60
2018-01-15T21:32:14.521Z,5.60
2018-01-15T21:34:42.762Z,5.60
2018-01-15T21:37:10.266Z,5.50
2018-01-15T21:39:37.694Z,5.50
2018-01-15T21:42:05.176Z,5.50
2018-01-15T21:44:32.662Z,5.50
2018-01-15T21:47:00.091Z,5.60
2018-01-15T21:49:27.578Z,5.50
2018-01-15T21:51:55.007Z,5.60
2018-01-15T21:54:22.514Z,5.50
2018-01-15T21:56:49.939Z,5.60
2018-01-15T21:59:18.186Z,5.60
2018-01-15T22:01:45.615Z,5.60
2018-01-15T22:04:13.059Z,5.60
2018-01-15T22:06:40.490Z,5.60
2018-01-15T22:09:08.742Z,5.60
2018-01-15T22:11:36.208Z,5.60
2018-01-15T22:14:03.634Z,5.60
2018-01-15T22:16:31.210Z,5.60
2018-01-15T22:18:58.673Z,5.60
2018-01-15T22:21:26.099Z,5.60
2018-01-15T22:23:53.540Z,5.60
2018-01-15T22:26:21.102Z,5.60
2018-01-15T22:28:48.536Z,5.60
2018-01-15T22:31:16.052Z,5.70
2018-01-15T22:33:43.487Z,5.60
2018-01-15T22:36:10.935Z,5.70
2018-01-15T22:38:38.366Z,5.70
2018-01-15T22:41:05.803Z,5.70
2018-01-15T22:43:34.022Z,5.70
2018-01-15T22:46:01.471Z,5.70
2018-01-15T22:48:28.909Z,5.70
2018-01-15T22:50:56.355Z,5.70
2018-01-15T22:53:24.555Z,5.80
2018-01-15T22:55:52.004Z,5.80
2018-01-15T22:58:19.446Z,5.80
2018-01-15T23:00:47.647Z,5.80
2018-01-15T23:03:15.084Z,5.80
2018-01-15T23:05:43.457Z,5.80
2018-01-15T23:08:10.887Z,5.70
2018-01-15T23:10:38.337Z,5.80
2018-01-15T23:13:05.797Z,5.80
2018-01-15T23:15:33.231Z,5.80
2018-01-15T23:18:00.678Z,5.80
2018-01-15T23:20:28.115Z,5.80
2018-01-15T23:22:55.562Z,5.80
2018-01-15T23:25:23.170Z,5.80
2018-01-15T23:27:50.638Z,5.80
2018-01-15T23:30:18.062Z,5.80
2018-01-15T23:32:45.502Z,5.80
2018-01-15T23:35:12.944Z,5.80
2018-01-15T23:37:40.387Z,5.80
2018-01-15T23:40:07.828Z,5.80
2018-01-15T23:42:36.043Z,5.80
2018-01-15T23:45:03.577Z,5.80
2018-01-15T23:47:30.972Z,5.80
2018-01-15T23:49:58.407Z,5.80
2018-01-15T23:52:25.854Z,5.90
2018-01-15T23:54:53.360Z,5.90
2018-01-15T23:57:20.791Z,5.90
2018-01-15T23:59:48.995Z,5.90
